Time;durP1;ratioP1;P1;durP2;ratioP2;P2;SDS_P1;SDS_P2;PMS_P1;PMS_P2;Temp;Humidity;BMP_temperature;BMP_pressure;BME280_temperature;BME280_humidity;BME280_pressure;Samples;Min_cycle;Max_cycle;Signal;HPM_P1;HPM_P2
2021/07/23 00:01:20;;;;;;;5.95;5.30;;;;;;;;;;4996630;28;20045;-81
2021/07/23 00:03:47;;;;;;;6.28;5.20;;;;;;;;;;5007942;28;20035;-81
2021/07/23 00:06:13;;;;;;;6.68;5.07;;;;;;;;;;4993002;28;20070;-80
2021/07/23 00:08:39;;;;;;;5.43;4.22;;;;;;;;;;5011117;28;20670;-81
2021/07/23 00:11:04;;;;;;;7.78;5.60;;;;;;;;;;5011347;28;20050;-81
2021/07/23 00:13:30;;;;;;;5.72;5.03;;;;;;;;;;4994265;28;20104;-81
2021/07/23 00:15:57;;;;;;;5.63;5.03;;;;;;;;;;5011156;28;20041;-81
2021/07/23 00:18:23;;;;;;;6.15;5.15;;;;;;;;;;5010960;28;20068;-81
2021/07/23 00:20:48;;;;;;;5.63;5.07;;;;;;;;;;4978382;28;20038;-80
2021/07/23 00:23:14;;;;;;;5.32;4.47;;;;;;;;;;4994986;28;20034;-81
2021/07/23 00:25:39;;;;;;;5.90;5.30;;;;;;;;;;4978360;28;20034;-81
2021/07/23 00:28:05;;;;;;;7.20;5.45;;;;;;;;;;4978446;28;20103;-81
2021/07/23 00:30:30;;;;;;;5.50;4.63;;;;;;;;;;4991258;28;20038;-80
2021/07/23 00:32:56;;;;;;;6.20;4.70;;;;;;;;;;4993981;28;20030;-80
2021/07/23 00:35:21;;;;;;;5.90;4.93;;;;;;;;;;5010934;28;20108;-81
2021/07/23 00:37:47;;;;;;;6.35;5.38;;;;;;;;;;4993280;28;20127;-81
2021/07/23 00:40:13;;;;;;;7.00;5.20;;;;;;;;;;5006888;28;20052;-81
2021/07/23 00:42:39;;;;;;;6.35;5.35;;;;;;;;;;5026991;28;20053;-81
2021/07/23 00:45:05;;;;;;;5.32;4.18;;;;;;;;;;5026740;28;20406;-81
2021/07/23 00:47:32;;;;;;;5.13;4.63;;;;;;;;;;5026534;28;20498;-81
2021/07/23 00:49:58;;;;;;;6.00;4.60;;;;;;;;;;4998158;28;20117;-81
2021/07/23 00:52:24;;;;;;;6.15;4.57;;;;;;;;;;4989562;28;20061;-81
2021/07/23 00:54:49;;;;;;;6.63;5.38;;;;;;;;;;4977341;28;20060;-80
2021/07/23 00:57:15;;;;;;;6.88;5.38;;;;;;;;;;4994182;28;20069;-81
2021/07/23 00:59:40;;;;;;;6.20;5.00;;;;;;;;;;4994290;28;20515;-81
2021/07/23 01:02:06;;;;;;;6.32;5.15;;;;;;;;;;4994347;28;20570;-81
2021/07/23 01:04:31;;;;;;;8.32;5.15;;;;;;;;;;5010407;28;20113;-81
2021/07/23 01:06:57;;;;;;;7.28;5.18;;;;;;;;;;4977816;28;20025;-81
2021/07/23 01:09:23;;;;;;;6.25;4.38;;;;;;;;;;4978038;28;20038;-81
2021/07/23 01:11:48;;;;;;;5.25;4.57;;;;;;;;;;4994055;28;20041;-81
2021/07/23 01:14:14;;;;;;;6.90;4.85;;;;;;;;;;4977811;28;20056;-81
2021/07/23 01:16:39;;;;;;;5.47;4.97;;;;;;;;;;4981781;28;20034;-80
2021/07/23 01:19:05;;;;;;;5.43;4.15;;;;;;;;;;5014267;28;20042;-81
2021/07/23 01:21:31;;;;;;;6.22;5.47;;;;;;;;;;4981451;28;20565;-82
2021/07/23 01:23:59;;;;;;;5.90;4.97;;;;;;;;;;5011029;28;20034;-81
2021/07/23 01:26:25;;;;;;;5.55;4.53;;;;;;;;;;5011105;28;20125;-81
2021/07/23 01:28:50;;;;;;;5.90;5.25;;;;;;;;;;5013720;28;20129;-81
2021/07/23 01:31:16;;;;;;;6.25;5.65;;;;;;;;;;5009855;28;20034;-81
2021/07/23 01:33:41;;;;;;;5.72;4.78;;;;;;;;;;5011286;28;20065;-81
2021/07/23 01:36:07;;;;;;;6.40;4.68;;;;;;;;;;4996655;28;20149;-80
2021/07/23 01:38:32;;;;;;;6.45;4.63;;;;;;;;;;5013477;28;20037;-82
2021/07/23 01:40:58;;;;;;;5.47;4.60;;;;;;;;;;4998168;28;20038;-81
2021/07/23 01:43:24;;;;;;;6.07;5.03;;;;;;;;;;5029990;28;20049;-81
2021/07/23 01:45:49;;;;;;;5.93;4.47;;;;;;;;;;5013748;28;20073;-81
2021/07/23 01:48:15;;;;;;;5.85;4.65;;;;;;;;;;5004309;28;20038;-81
2021/07/23 01:50:40;;;;;;;5.63;4.70;;;;;;;;;;5014147;28;20040;-81
2021/07/23 01:53:06;;;;;;;6.50;5.18;;;;;;;;;;5028570;28;20065;-81
2021/07/23 01:55:32;;;;;;;5.97;4.55;;;;;;;;;;5026809;28;20042;-81
2021/07/23 01:57:57;;;;;;;7.43;4.88;;;;;;;;;;5040450;28;20038;-81
2021/07/23 02:00:23;;;;;;;6.03;5.22;;;;;;;;;;4999150;28;20021;-81
2021/07/23 02:02:48;;;;;;;6.78;5.18;;;;;;;;;;4981452;28;20041;-82
2021/07/23 02:05:13;;;;;;;6.35;4.70;;;;;;;;;;4981167;28;20052;-81
2021/07/23 02:07:39;;;;;;;5.43;4.85;;;;;;;;;;4964851;28;20037;-81
2021/07/23 02:10:05;;;;;;;5.35;4.85;;;;;;;;;;4997107;28;20046;-81
2021/07/23 02:12:30;;;;;;;5.20;4.50;;;;;;;;;;4980177;28;20038;-81
2021/07/23 02:14:56;;;;;;;6.50;4.75;;;;;;;;;;4980862;28;20037;-81
2021/07/23 02:17:21;;;;;;;5.85;4.45;;;;;;;;;;4980874;28;20088;-81
2021/07/23 02:19:47;;;;;;;5.63;5.03;;;;;;;;;;4980983;28;20542;-81
2021/07/23 02:22:12;;;;;;;6.00;4.90;;;;;;;;;;4980642;28;20069;-82
2021/07/23 02:24:38;;;;;;;4.70;4.18;;;;;;;;;;5013235;28;20038;-81
2021/07/23 02:27:03;;;;;;;6.30;5.10;;;;;;;;;;5011546;28;20095;-81
2021/07/23 02:29:29;;;;;;;5.30;4.38;;;;;;;;;;4980701;28;20111;-81
2021/07/23 02:31:54;;;;;;;5.97;4.63;;;;;;;;;;5013216;28;20060;-82
2021/07/23 02:34:20;;;;;;;6.47;4.75;;;;;;;;;;5008667;28;20042;-82
2021/07/23 02:36:45;;;;;;;6.50;4.38;;;;;;;;;;5006272;28;20076;-81
2021/07/23 02:39:11;;;;;;;5.38;4.60;;;;;;;;;;5011919;28;20026;-81
2021/07/23 02:41:36;;;;;;;4.85;4.10;;;;;;;;;;5029484;28;20038;-82
2021/07/23 02:44:02;;;;;;;5.25;4.75;;;;;;;;;;5012371;28;20042;-81
2021/07/23 02:46:29;;;;;;;6.25;4.35;;;;;;;;;;4993265;28;20046;-81
2021/07/23 02:48:54;;;;;;;5.07;4.47;;;;;;;;;;4994801;28;20085;-81
2021/07/23 02:51:20;;;;;;;7.13;4.90;;;;;;;;;;4993664;28;20046;-81
2021/07/23 02:53:46;;;;;;;5.40;4.22;;;;;;;;;;5025624;28;20432;-81
2021/07/23 02:56:11;;;;;;;5.55;4.47;;;;;;;;;;5029004;28;20034;-81
2021/07/23 02:58:38;;;;;;;5.03;4.22;;;;;;;;;;5012497;28;20041;-81
2021/07/23 03:01:04;;;;;;;5.72;4.20;;;;;;;;;;5012974;28;20080;-81
2021/07/23 03:03:30;;;;;;;5.57;4.72;;;;;;;;;;5008462;28;20045;-82
2021/07/23 03:05:57;;;;;;;6.88;4.82;;;;;;;;;;5011352;28;20034;-82
2021/07/23 03:08:22;;;;;;;4.80;4.13;;;;;;;;;;4994383;28;20044;-81
2021/07/23 03:10:47;;;;;;;5.93;4.78;;;;;;;;;;5026830;28;20034;-82
2021/07/23 03:13:13;;;;;;;5.05;3.80;;;;;;;;;;5010442;28;20041;-82
2021/07/23 03:15:38;;;;;;;4.97;4.45;;;;;;;;;;5014302;28;20060;-82
2021/07/23 03:18:04;;;;;;;6.85;4.80;;;;;;;;;;5048560;28;20063;-81
2021/07/23 03:20:29;;;;;;;5.30;4.78;;;;;;;;;;5028610;28;20030;-81
2021/07/23 03:22:55;;;;;;;6.85;4.72;;;;;;;;;;5012853;28;20033;-82
2021/07/23 03:25:20;;;;;;;8.13;4.82;;;;;;;;;;5012120;28;20042;-80
2021/07/23 03:27:46;;;;;;;6.22;5.25;;;;;;;;;;5012180;28;20060;-81
2021/07/23 03:30:12;;;;;;;5.88;4.57;;;;;;;;;;4995885;28;20061;-81
2021/07/23 03:32:37;;;;;;;5.35;4.43;;;;;;;;;;5020735;28;20029;-82
2021/07/23 03:35:03;;;;;;;7.50;5.05;;;;;;;;;;5048349;28;20227;-82
2021/07/23 03:37:29;;;;;;;6.78;5.32;;;;;;;;;;5044612;28;20042;-82
2021/07/23 03:39:54;;;;;;;6.97;5.50;;;;;;;;;;5011731;28;20104;-81
2021/07/23 03:42:22;;;;;;;6.90;4.75;;;;;;;;;;5006905;28;20042;-81
2021/07/23 03:44:47;;;;;;;6.60;5.32;;;;;;;;;;5008723;28;20496;-82
2021/07/23 03:47:15;;;;;;;6.28;5.32;;;;;;;;;;4996384;28;20117;-82
2021/07/23 03:49:41;;;;;;;6.63;5.10;;;;;;;;;;5025134;28;20045;-82
2021/07/23 03:52:07;;;;;;;8.20;5.50;;;;;;;;;;5025150;28;20030;-81
2021/07/23 03:54:32;;;;;;;6.55;5.43;;;;;;;;;;5027830;28;20034;-81
2021/07/23 03:56:58;;;;;;;6.93;5.68;;;;;;;;;;5011916;28;20034;-81
2021/07/23 03:59:23;;;;;;;7.25;5.60;;;;;;;;;;5000893;28;20030;-81
2021/07/23 04:01:48;;;;;;;6.65;5.30;;;;;;;;;;5008157;28;20112;-79
2021/07/23 04:04:14;;;;;;;6.65;5.93;;;;;;;;;;5008145;28;20042;-80
2021/07/23 04:06:39;;;;;;;6.32;5.18;;;;;;;;;;5006980;28;20042;-79
2021/07/23 04:09:05;;;;;;;6.88;5.65;;;;;;;;;;5011504;28;20034;-79
2021/07/23 04:11:36;;;;;;;9.30;5.70;;;;;;;;;;5027631;28;20069;-79
2021/07/23 04:14:01;;;;;;;8.25;5.65;;;;;;;;;;5020755;28;20144;-80
2021/07/23 04:16:27;;;;;;;7.88;4.82;;;;;;;;;;5008037;28;20039;-79
2021/07/23 04:18:52;;;;;;;5.65;5.00;;;;;;;;;;4991614;28;20034;-79
2021/07/23 04:21:18;;;;;;;6.13;4.97;;;;;;;;;;5008113;28;20464;-79
2021/07/23 04:23:43;;;;;;;7.88;5.55;;;;;;;;;;5009245;28;20386;-81
2021/07/23 04:26:09;;;;;;;6.45;5.03;;;;;;;;;;4997764;28;20061;-80
2021/07/23 04:28:35;;;;;;;6.38;5.25;;;;;;;;;;5026014;28;20060;-80
2021/07/23 04:31:00;;;;;;;6.60;4.88;;;;;;;;;;4995099;28;20412;-80
2021/07/23 04:33:26;;;;;;;5.78;5.10;;;;;;;;;;4993783;28;20040;-80
2021/07/23 04:35:51;;;;;;;5.97;5.10;;;;;;;;;;5010946;28;20059;-80
2021/07/23 04:38:17;;;;;;;6.82;5.78;;;;;;;;;;5028927;28;20025;-80
2021/07/23 04:40:42;;;;;;;8.50;6.63;;;;;;;;;;5005198;28;20069;-80
2021/07/23 04:43:08;;;;;;;6.85;6.07;;;;;;;;;;5007573;28;20061;-81
2021/07/23 04:45:34;;;;;;;6.88;5.72;;;;;;;;;;4978064;28;20048;-80
2021/07/23 04:48:00;;;;;;;8.55;6.07;;;;;;;;;;4994173;28;20084;-80
2021/07/23 04:50:25;;;;;;;5.85;4.93;;;;;;;;;;5010125;28;20041;-80
2021/07/23 04:52:55;;;;;;;6.47;5.57;;;;;;;;;;5010511;28;20137;-80
2021/07/23 04:55:21;;;;;;;6.68;5.38;;;;;;;;;;5023797;28;20066;-80
2021/07/23 04:57:47;;;;;;;6.90;6.20;;;;;;;;;;5007594;28;20076;-80
2021/07/23 05:00:13;;;;;;;7.30;5.47;;;;;;;;;;5007318;28;20027;-80
2021/07/23 05:02:41;;;;;;;7.68;5.57;;;;;;;;;;5015568;28;20484;-80
2021/07/23 05:05:10;;;;;;;5.97;5.15;;;;;;;;;;5009122;28;20072;-80
2021/07/23 05:07:36;;;;;;;6.35;5.40;;;;;;;;;;5009558;28;20504;-82
2021/07/23 05:10:01;;;;;;;8.70;6.00;;;;;;;;;;4991040;28;20045;-80
2021/07/23 05:12:27;;;;;;;8.43;6.15;;;;;;;;;;4990656;28;20367;-80
2021/07/23 05:14:52;;;;;;;8.43;5.32;;;;;;;;;;5006970;28;20046;-80
2021/07/23 05:17:18;;;;;;;8.63;5.50;;;;;;;;;;5007319;28;20596;-80
2021/07/23 05:19:43;;;;;;;7.80;6.00;;;;;;;;;;4990777;28;20453;-82
2021/07/23 05:22:09;;;;;;;7.80;6.22;;;;;;;;;;4990544;28;20038;-80
2021/07/23 05:24:34;;;;;;;8.90;6.40;;;;;;;;;;5007326;28;20043;-81
2021/07/23 05:27:00;;;;;;;8.88;6.78;;;;;;;;;;5016871;28;20117;-80
2021/07/23 05:29:25;;;;;;;7.97;6.18;;;;;;;;;;5026727;28;20037;-80
2021/07/23 05:31:51;;;;;;;9.40;6.47;;;;;;;;;;5010176;28;20034;-80
2021/07/23 05:34:17;;;;;;;7.93;6.95;;;;;;;;;;5022749;28;20031;-80
2021/07/23 05:36:42;;;;;;;6.82;5.95;;;;;;;;;;5021799;28;20041;-80
2021/07/23 05:39:08;;;;;;;7.05;6.07;;;;;;;;;;4978004;28;20038;-80
2021/07/23 05:41:34;;;;;;;7.78;6.18;;;;;;;;;;5009607;28;20065;-80
2021/07/23 05:43:59;;;;;;;7.95;6.50;;;;;;;;;;4986892;28;20073;-83
2021/07/23 05:46:28;;;;;;;7.47;6.60;;;;;;;;;;5029820;28;20038;-81
2021/07/23 05:48:54;;;;;;;8.73;6.38;;;;;;;;;;5027843;28;20041;-81
2021/07/23 05:51:19;;;;;;;7.43;6.35;;;;;;;;;;5021141;28;20112;-80
2021/07/23 05:53:45;;;;;;;8.30;6.35;;;;;;;;;;5009954;28;20100;-81
2021/07/23 05:56:10;;;;;;;7.07;6.28;;;;;;;;;;5007681;28;20044;-80
2021/07/23 05:58:36;;;;;;;9.25;6.53;;;;;;;;;;4974531;28;20116;-81
2021/07/23 06:01:08;;;;;;;8.73;7.07;;;;;;;;;;5005200;28;20047;-81
2021/07/23 06:03:37;;;;;;;7.03;6.03;;;;;;;;;;5016801;28;20040;-81
2021/07/23 06:06:03;;;;;;;10.77;6.68;;;;;;;;;;4994327;28;20084;-81
2021/07/23 06:08:29;;;;;;;7.88;5.75;;;;;;;;;;4978352;28;20152;-80
2021/07/23 06:10:54;;;;;;;7.95;6.22;;;;;;;;;;4998107;28;20685;-80
2021/07/23 06:13:20;;;;;;;7.60;6.30;;;;;;;;;;5046115;28;20053;-81
2021/07/23 06:15:45;;;;;;;8.10;6.25;;;;;;;;;;5002055;28;20576;-80
2021/07/23 06:18:11;;;;;;;7.13;6.05;;;;;;;;;;5010456;28;20033;-81
2021/07/23 06:20:36;;;;;;;7.32;6.22;;;;;;;;;;5049754;28;20033;-80
2021/07/23 06:23:02;;;;;;;7.43;6.50;;;;;;;;;;5030128;28;20068;-81
2021/07/23 06:25:27;;;;;;;6.68;5.60;;;;;;;;;;5030014;28;20049;-81
2021/07/23 06:27:53;;;;;;;7.60;5.68;;;;;;;;;;5013584;28;20073;-80
2021/07/23 06:30:18;;;;;;;10.27;6.50;;;;;;;;;;5013289;28;20107;-80
2021/07/23 06:32:44;;;;;;;8.85;5.85;;;;;;;;;;4996780;28;20117;-80
2021/07/23 06:35:09;;;;;;;9.23;6.75;;;;;;;;;;5034027;28;20048;-80
2021/07/23 06:37:35;;;;;;;6.88;6.15;;;;;;;;;;5020175;28;20091;-80
2021/07/23 06:40:00;;;;;;;9.90;5.88;;;;;;;;;;5033131;28;20495;-80
2021/07/23 06:42:26;;;;;;;7.45;5.78;;;;;;;;;;5032426;28;20495;-81
2021/07/23 06:44:52;;;;;;;10.55;6.22;;;;;;;;;;5049683;28;20060;-80
2021/07/23 06:47:20;;;;;;;10.25;5.22;;;;;;;;;;4995056;28;20025;-79
2021/07/23 06:49:48;;;;;;;12.43;7.22;;;;;;;;;;5013092;28;20412;-80
2021/07/23 06:52:13;;;;;;;7.05;5.68;;;;;;;;;;4996736;28;20112;-80
2021/07/23 06:54:40;;;;;;;14.23;6.15;;;;;;;;;;5012729;28;20113;-81
2021/07/23 06:57:05;;;;;;;15.50;5.72;;;;;;;;;;5028842;28;20440;-80
2021/07/23 06:59:34;;;;;;;8.68;5.82;;;;;;;;;;5012637;28;20040;-81
2021/07/23 07:02:03;;;;;;;10.15;5.38;;;;;;;;;;5008016;28;20913;-81
2021/07/23 07:04:28;;;;;;;11.35;5.38;;;;;;;;;;5028584;28;20796;-80
2021/07/23 07:06:57;;;;;;;9.10;5.82;;;;;;;;;;5006737;28;20041;-81
2021/07/23 07:09:24;;;;;;;12.60;8.88;;;;;;;;;;4993080;28;20034;-81
2021/07/23 07:11:50;;;;;;;13.18;9.82;;;;;;;;;;5010899;28;20157;-81
2021/07/23 07:14:15;;;;;;;14.25;10.52;;;;;;;;;;5028261;28;20591;-81
2021/07/23 07:16:41;;;;;;;13.10;9.95;;;;;;;;;;4986912;28;20056;-80
2021/07/23 07:19:06;;;;;;;13.02;9.65;;;;;;;;;;4995432;28;20041;-80
2021/07/23 07:21:32;;;;;;;13.50;9.73;;;;;;;;;;4996037;28;20504;-80
2021/07/23 07:24:00;;;;;;;13.00;8.63;;;;;;;;;;4995901;28;20045;-80
2021/07/23 07:26:26;;;;;;;12.27;9.45;;;;;;;;;;5028572;28;20042;-81
2021/07/23 07:28:51;;;;;;;12.18;9.40;;;;;;;;;;5012058;28;20061;-80
2021/07/23 07:31:17;;;;;;;10.32;7.47;;;;;;;;;;4986606;28;20503;-81
2021/07/23 07:33:42;;;;;;;11.88;9.07;;;;;;;;;;5031778;28;20034;-82
2021/07/23 07:36:08;;;;;;;13.45;9.50;;;;;;;;;;5045965;28;20038;-82
2021/07/23 07:38:36;;;;;;;11.18;9.05;;;;;;;;;;5015378;28;20056;-82
2021/07/23 07:41:02;;;;;;;10.25;8.65;;;;;;;;;;5032262;28;20040;-82
2021/07/23 07:43:27;;;;;;;10.88;7.13;;;;;;;;;;5015142;28;20407;-81
2021/07/23 07:45:54;;;;;;;9.43;7.78;;;;;;;;;;5031635;28;20073;-81
2021/07/23 07:48:21;;;;;;;9.98;7.45;;;;;;;;;;5028557;28;20574;-80
2021/07/23 07:50:46;;;;;;;9.80;8.00;;;;;;;;;;5048132;28;20503;-81
2021/07/23 07:53:12;;;;;;;11.85;7.95;;;;;;;;;;5031698;28;20040;-82
2021/07/23 07:55:38;;;;;;;9.77;7.82;;;;;;;;;;5036870;28;20045;-82
2021/07/23 07:58:03;;;;;;;11.07;8.00;;;;;;;;;;4996597;28;20500;-82
2021/07/23 08:00:29;;;;;;;13.45;7.75;;;;;;;;;;5018952;28;20041;-81
2021/07/23 08:02:54;;;;;;;14.88;8.07;;;;;;;;;;5014657;28;20122;-81
2021/07/23 08:05:20;;;;;;;10.95;8.52;;;;;;;;;;4991531;28;20046;-81
2021/07/23 08:07:45;;;;;;;14.02;8.77;;;;;;;;;;4991840;28;20034;-81
2021/07/23 08:10:13;;;;;;;9.60;7.32;;;;;;;;;;4975672;28;20039;-81
2021/07/23 08:12:39;;;;;;;10.93;7.28;;;;;;;;;;4991769;28;20042;-81
2021/07/23 08:15:05;;;;;;;9.50;7.30;;;;;;;;;;4975548;28;20073;-82
2021/07/23 08:17:30;;;;;;;8.35;6.93;;;;;;;;;;4988838;28;20439;-82
2021/07/23 08:19:59;;;;;;;9.00;7.50;;;;;;;;;;5031420;28;20045;-81
2021/07/23 08:22:25;;;;;;;9.65;7.18;;;;;;;;;;5015151;28;20072;-80
2021/07/23 08:24:51;;;;;;;11.32;6.85;;;;;;;;;;5009811;28;20038;-81
2021/07/23 08:27:18;;;;;;;10.50;7.07;;;;;;;;;;4975189;28;20068;-81
2021/07/23 08:29:45;;;;;;;8.13;6.72;;;;;;;;;;4999898;28;20042;-81
2021/07/23 08:32:11;;;;;;;10.85;8.30;;;;;;;;;;5010793;28;20117;-81
2021/07/23 08:34:37;;;;;;;10.63;7.03;;;;;;;;;;5020614;28;20045;-81
2021/07/23 08:37:03;;;;;;;11.57;8.65;;;;;;;;;;5022717;28;20400;-81
2021/07/23 08:39:28;;;;;;;10.70;7.72;;;;;;;;;;5027551;28;20124;-83
2021/07/23 08:41:55;;;;;;;7.28;6.35;;;;;;;;;;5027718;28;20038;-81
2021/07/23 08:44:22;;;;;;;11.10;5.82;;;;;;;;;;5027503;28;20064;-85
2021/07/23 08:46:49;;;;;;;7.72;6.38;;;;;;;;;;5011058;28;20557;-82
2021/07/23 08:49:14;;;;;;;11.00;6.40;;;;;;;;;;5027406;28;20034;-81
2021/07/23 08:51:40;;;;;;;10.43;7.13;;;;;;;;;;5011512;28;20052;-84
2021/07/23 08:54:07;;;;;;;9.50;6.45;;;;;;;;;;5027432;28;20048;-88
2021/07/23 08:56:32;;;;;;;11.38;7.72;;;;;;;;;;4995323;28;20104;-86
2021/07/23 08:58:57;;;;;;;9.18;6.22;;;;;;;;;;5027261;28;20103;-85
2021/07/23 09:01:23;;;;;;;10.15;6.32;;;;;;;;;;5010965;28;20034;-80
2021/07/23 09:03:48;;;;;;;8.73;6.10;;;;;;;;;;5023099;28;20104;-81
2021/07/23 09:06:17;;;;;;;10.25;6.70;;;;;;;;;;4993547;28;20493;-81
2021/07/23 09:08:50;;;;;;;9.68;6.75;;;;;;;;;;5009860;28;20033;-81
2021/07/23 09:11:15;;;;;;;10.27;6.97;;;;;;;;;;4970423;28;20060;-82
2021/07/23 09:13:41;;;;;;;8.82;7.10;;;;;;;;;;5005024;28;20041;-80
2021/07/23 09:16:23;;;;;;;10.30;6.63;;;;;;;;;;5030037;28;20037;-81
2021/07/23 09:18:49;;;;;;;;;;;;;;;;;;4962347;28;20030;-81
2021/07/23 09:21:16;;;;;;;9.60;7.18;;;;;;;;;;4994124;28;19935;-81
2021/07/23 09:23:42;;;;;;;9.00;7.00;;;;;;;;;;4962332;28;20076;-81
2021/07/23 09:26:07;;;;;;;9.75;6.90;;;;;;;;;;5026540;28;20029;-81
2021/07/23 09:28:33;;;;;;;9.70;7.15;;;;;;;;;;5010328;28;20037;-81
2021/07/23 09:31:03;;;;;;;9.02;6.13;;;;;;;;;;4974858;28;20026;-80
2021/07/23 09:33:37;;;;;;;7.03;5.45;;;;;;;;;;4991248;28;20042;-80
2021/07/23 09:36:04;;;;;;;12.10;6.78;;;;;;;;;;5016252;28;20029;-79
2021/07/23 09:38:39;;;;;;;11.70;7.15;;;;;;;;;;5010557;28;20065;-79
2021/07/23 09:41:07;;;;;;;10.57;7.20;;;;;;;;;;5010682;28;20070;-80
2021/07/23 09:43:43;;;;;;;8.85;6.32;;;;;;;;;;4999375;28;20034;-80
2021/07/23 09:46:17;;;;;;;10.48;7.20;;;;;;;;;;5030866;28;20092;-80
2021/07/23 09:48:46;;;;;;;6.95;5.47;;;;;;;;;;5013790;28;20045;-80
2021/07/23 09:51:12;;;;;;;8.90;6.70;;;;;;;;;;5029881;28;20045;-80
2021/07/23 09:53:37;;;;;;;8.23;6.40;;;;;;;;;;4997632;28;20104;-80
2021/07/23 09:56:10;;;;;;;9.18;6.45;;;;;;;;;;4996955;28;20105;-80
2021/07/23 09:58:52;;;;;;;11.82;7.32;;;;;;;;;;4997079;28;20038;-80
2021/07/23 10:01:29;;;;;;;9.40;6.07;;;;;;;;;;5053833;28;20033;-80
2021/07/23 10:03:58;;;;;;;10.02;6.35;;;;;;;;;;5030115;28;20041;-80
2021/07/23 10:06:40;;;;;;;8.25;6.65;;;;;;;;;;5044324;28;20108;-79
2021/07/23 10:09:08;;;;;;;10.85;7.07;;;;;;;;;;5001832;28;20048;-80
2021/07/23 10:11:34;;;;;;;9.68;6.90;;;;;;;;;;5009339;28;20563;-80
2021/07/23 10:13:59;;;;;;;10.23;8.10;;;;;;;;;;5010146;28;20054;-81
2021/07/23 10:16:25;;;;;;;11.63;7.93;;;;;;;;;;5010365;28;20117;-80
2021/07/23 10:18:50;;;;;;;10.93;7.80;;;;;;;;;;5008319;28;20045;-80
2021/07/23 10:21:16;;;;;;;9.48;7.18;;;;;;;;;;5029698;28;20042;-80
2021/07/23 10:23:42;;;;;;;10.35;7.80;;;;;;;;;;5029966;28;20068;-79
2021/07/23 10:26:08;;;;;;;13.65;8.68;;;;;;;;;;5012855;28;20080;-80
2021/07/23 10:28:43;;;;;;;9.77;8.07;;;;;;;;;;5026085;28;20452;-80
2021/07/23 10:31:17;;;;;;;11.15;7.22;;;;;;;;;;5013622;28;20066;-80
2021/07/23 10:33:56;;;;;;;11.98;8.15;;;;;;;;;;5009671;28;20042;-88
2021/07/23 10:36:32;;;;;;;12.57;8.45;;;;;;;;;;5000504;28;20033;-86
2021/07/23 10:39:09;;;;;;;11.15;7.88;;;;;;;;;;5003659;28;20043;-87
2021/07/23 10:41:38;;;;;;;11.13;7.95;;;;;;;;;;5026884;28;20034;-86
2021/07/23 10:44:33;;;;;;;11.68;8.77;;;;;;;;;;5010055;28;20049;-86
2021/07/23 10:46:59;;;;;;;12.32;9.52;;;;;;;;;;5009060;28;20030;-88
2021/07/23 10:49:26;;;;;;;10.55;8.90;;;;;;;;;;4978390;28;20034;-91
2021/07/23 10:52:00;;;;;;;11.10;7.80;;;;;;;;;;5030434;28;20037;-88
2021/07/23 10:54:27;;;;;;;13.23;7.63;;;;;;;;;;4996764;28;20042;-80
2021/07/23 10:57:01;;;;;;;11.70;8.40;;;;;;;;;;5012165;28;20030;-81
2021/07/23 10:59:42;;;;;;;11.23;8.93;;;;;;;;;;5012026;28;20492;-80
2021/07/23 11:02:28;;;;;;;11.15;7.57;;;;;;;;;;5008804;28;20030;-80
2021/07/23 11:05:06;;;;;;;10.75;8.23;;;;;;;;;;4998847;28;20492;-81
2021/07/23 11:07:31;;;;;;;11.13;8.65;;;;;;;;;;4964153;28;20030;-81
2021/07/23 11:09:57;;;;;;;10.02;9.02;;;;;;;;;;5012180;28;20042;-80
2021/07/23 11:12:28;;;;;;;12.77;10.05;;;;;;;;;;5001753;28;20034;-81
2021/07/23 11:15:04;;;;;;;10.98;8.52;;;;;;;;;;5006121;28;20046;-81
2021/07/23 11:17:30;;;;;;;12.35;9.43;;;;;;;;;;4996311;28;20141;-80
2021/07/23 11:19:58;;;;;;;19.77;15.13;;;;;;;;;;4996105;28;20492;-80
2021/07/23 11:22:26;;;;;;;44.15;30.50;;;;;;;;;;4992703;28;20030;-80
2021/07/23 11:24:58;;;;;;;34.03;26.50;;;;;;;;;;5008855;28;20057;-80
2021/07/23 11:27:24;;;;;;;22.20;17.92;;;;;;;;;;4988001;28;20047;-80
2021/07/23 11:29:50;;;;;;;13.07;10.45;;;;;;;;;;4979536;28;20053;-81
2021/07/23 11:32:17;;;;;;;12.50;7.75;;;;;;;;;;4963209;28;20037;-80
2021/07/23 11:34:44;;;;;;;11.35;8.45;;;;;;;;;;5026146;28;20088;-80
2021/07/23 11:37:17;;;;;;;11.38;7.95;;;;;;;;;;5015272;28;20035;-80
2021/07/23 11:39:57;;;;;;;11.95;8.25;;;;;;;;;;5024020;28;20041;-80
2021/07/23 11:42:23;;;;;;;10.13;8.65;;;;;;;;;;5020672;28;20029;-80
2021/07/23 11:44:59;;;;;;;9.35;7.25;;;;;;;;;;5025651;28;20076;-80
2021/07/23 11:47:35;;;;;;;9.55;7.05;;;;;;;;;;4995257;28;20121;-80
2021/07/23 11:50:01;;;;;;;11.15;7.50;;;;;;;;;;5028361;28;20050;-80
2021/07/23 11:52:27;;;;;;;12.00;7.53;;;;;;;;;;5008028;28;20030;-80
2021/07/23 11:55:00;;;;;;;10.55;7.65;;;;;;;;;;4991955;28;20064;-80
2021/07/23 11:57:26;;;;;;;10.25;7.45;;;;;;;;;;5014009;28;20507;-80
2021/07/23 11:59:52;;;;;;;8.70;7.57;;;;;;;;;;5004814;28;20064;-80
2021/07/23 12:02:18;;;;;;;12.00;8.77;;;;;;;;;;4979284;28;20501;-81
2021/07/23 12:04:44;;;;;;;10.32;7.80;;;;;;;;;;4959771;28;20034;-80
2021/07/23 12:07:10;;;;;;;8.85;7.95;;;;;;;;;;4978106;28;20026;-80
2021/07/23 12:09:35;;;;;;;11.80;8.18;;;;;;;;;;4994689;28;20042;-80
2021/07/23 12:12:01;;;;;;;9.35;7.60;;;;;;;;;;4978280;28;20038;-79
2021/07/23 12:14:27;;;;;;;13.13;9.13;;;;;;;;;;4994951;28;20058;-80
2021/07/23 12:16:52;;;;;;;10.50;7.50;;;;;;;;;;4989961;28;20391;-79
2021/07/23 12:19:18;;;;;;;11.45;7.97;;;;;;;;;;5042234;28;20100;-80
2021/07/23 12:21:44;;;;;;;9.43;7.43;;;;;;;;;;4990874;28;20035;-80
2021/07/23 12:24:09;;;;;;;10.48;7.95;;;;;;;;;;5013223;28;20454;-80
2021/07/23 12:26:39;;;;;;;11.85;7.72;;;;;;;;;;4986272;28;20038;-80
2021/07/23 12:29:06;;;;;;;11.00;8.57;;;;;;;;;;4993925;28;20523;-80
2021/07/23 12:31:32;;;;;;;12.48;7.95;;;;;;;;;;5010901;28;20046;-80
2021/07/23 12:34:10;;;;;;;8.98;5.70;;;;;;;;;;5011117;28;20530;-80
2021/07/23 12:36:53;;;;;;;7.65;6.25;;;;;;;;;;4990928;28;20126;-80
2021/07/23 12:39:23;;;;;;;7.60;5.60;;;;;;;;;;5004011;28;20035;-80
2021/07/23 12:41:49;;;;;;;7.05;5.65;;;;;;;;;;4974443;28;20038;-80
2021/07/23 12:44:15;;;;;;;6.40;5.20;;;;;;;;;;4994388;28;20513;-81
2021/07/23 12:46:42;;;;;;;8.45;6.00;;;;;;;;;;4994701;28;20500;-80
2021/07/23 12:49:15;;;;;;;6.95;5.28;;;;;;;;;;5010626;28;20096;-81
2021/07/23 12:51:41;;;;;;;11.20;5.50;;;;;;;;;;5006355;28;20045;-82
2021/07/23 12:54:07;;;;;;;8.20;5.30;;;;;;;;;;4990171;28;20479;-82
2021/07/23 12:56:32;;;;;;;11.98;5.75;;;;;;;;;;4994454;28;20029;-82
2021/07/23 12:58:58;;;;;;;8.68;5.00;;;;;;;;;;5027432;28;20491;-82
2021/07/23 13:01:23;;;;;;;9.25;5.22;;;;;;;;;;5027018;28;20485;-81
2021/07/23 13:03:49;;;;;;;8.35;5.43;;;;;;;;;;5027439;28;20030;-82
2021/07/23 13:06:19;;;;;;;6.95;5.43;;;;;;;;;;5026853;28;20049;-82
2021/07/23 13:08:45;;;;;;;6.38;4.75;;;;;;;;;;5027709;28;20121;-82
2021/07/23 13:11:10;;;;;;;7.78;5.40;;;;;;;;;;5026452;28;20125;-82
2021/07/23 13:13:42;;;;;;;5.50;4.60;;;;;;;;;;5026655;28;20050;-82
2021/07/23 13:16:10;;;;;;;6.78;4.43;;;;;;;;;;5027510;28;20060;-81
2021/07/23 13:18:35;;;;;;;7.70;4.53;;;;;;;;;;4994478;28;20046;-81
2021/07/23 13:21:02;;;;;;;6.18;5.00;;;;;;;;;;5027067;28;20558;-82
2021/07/23 13:23:31;;;;;;;5.80;5.05;;;;;;;;;;5027257;28;20030;-81
2021/07/23 13:26:00;;;;;;;6.45;4.70;;;;;;;;;;5027043;28;20066;-82
2021/07/23 13:28:27;;;;;;;6.65;5.00;;;;;;;;;;5027101;28;20495;-82
2021/07/23 13:30:53;;;;;;;5.88;4.30;;;;;;;;;;5012516;28;20403;-81
2021/07/23 13:33:18;;;;;;;9.88;4.97;;;;;;;;;;5010360;28;20030;-82
2021/07/23 13:35:45;;;;;;;6.47;5.40;;;;;;;;;;5026684;28;20044;-82
2021/07/23 13:38:11;;;;;;;5.95;4.70;;;;;;;;;;5028056;28;20080;-82
2021/07/23 13:40:37;;;;;;;7.05;5.20;;;;;;;;;;5030367;28;20059;-82
2021/07/23 13:43:04;;;;;;;7.32;5.13;;;;;;;;;;5029902;28;20499;-82
2021/07/23 13:45:33;;;;;;;6.53;4.13;;;;;;;;;;5047034;28;20041;-81
2021/07/23 13:47:59;;;;;;;5.28;4.55;;;;;;;;;;4999521;28;20046;-82
2021/07/23 13:50:24;;;;;;;6.43;4.38;;;;;;;;;;4973900;28;20034;-82
2021/07/23 13:52:49;;;;;;;5.85;4.75;;;;;;;;;;5007077;28;20566;-82
2021/07/23 13:55:15;;;;;;;6.07;4.90;;;;;;;;;;4990581;28;20493;-82
2021/07/23 13:57:40;;;;;;;7.07;4.63;;;;;;;;;;4974830;28;20034;-82
2021/07/23 14:00:07;;;;;;;5.80;4.40;;;;;;;;;;4974941;28;20042;-82
2021/07/23 14:02:33;;;;;;;6.15;4.90;;;;;;;;;;4990888;28;20481;-81
2021/07/23 14:04:59;;;;;;;5.70;5.05;;;;;;;;;;5007138;28;20092;-82
2021/07/23 14:07:25;;;;;;;6.05;4.93;;;;;;;;;;4990449;28;20034;-82
2021/07/23 14:09:50;;;;;;;7.03;4.45;;;;;;;;;;4990459;28;20438;-82
2021/07/23 14:12:16;;;;;;;5.30;4.72;;;;;;;;;;4990358;28;20437;-81
2021/07/23 14:14:41;;;;;;;6.38;4.60;;;;;;;;;;4990649;28;20038;-82
2021/07/23 14:17:07;;;;;;;6.25;4.53;;;;;;;;;;4974556;28;20555;-82
2021/07/23 14:19:32;;;;;;;6.53;4.13;;;;;;;;;;4990117;28;20050;-82
2021/07/23 14:21:58;;;;;;;5.90;4.82;;;;;;;;;;4975697;28;20038;-82
2021/07/23 14:24:23;;;;;;;5.80;4.47;;;;;;;;;;4994018;28;20057;-82
2021/07/23 14:26:48;;;;;;;5.72;4.57;;;;;;;;;;5010099;28;20022;-82
2021/07/23 14:29:14;;;;;;;6.80;4.45;;;;;;;;;;5014774;28;20022;-82
2021/07/23 14:31:39;;;;;;;5.45;4.63;;;;;;;;;;4981062;28;20083;-82
2021/07/23 14:34:05;;;;;;;5.00;4.38;;;;;;;;;;5013211;28;20037;-82
2021/07/23 14:36:31;;;;;;;6.72;4.90;;;;;;;;;;5033778;28;20037;-82